Time;durP1;ratioP1;P1;durP2;ratioP2;P2;SDS_P1;SDS_P2;PMS_P1;PMS_P2;Temp;Humidity;BMP_temperature;BMP_pressure;BME280_temperature;BME280_humidity;BME280_pressure;Samples;Min_cycle;Max_cycle;Signal;HPM_P1;HPM_P2
2022/10/01 00:02:16;;;;;;;;;;;10.90;99.90;;;;;;6221610;23;20169;-78
2022/10/01 00:04:42;;;;;;;;;;;10.90;99.90;;;;;;6221178;23;19912;-76
2022/10/01 00:07:13;;;;;;;;;;;10.90;99.90;;;;;;6221304;23;20274;-77
2022/10/01 00:09:39;;;;;;;;;;;10.90;99.90;;;;;;6221665;23;19912;-76
2022/10/01 00:12:05;;;;;;;;;;;10.80;99.90;;;;;;6221389;23;19912;-76
2022/10/01 00:14:42;;;;;;;;;;;10.80;99.90;;;;;;6221353;23;19965;-77
2022/10/01 00:17:08;;;;;;;;;;;10.90;99.90;;;;;;6221288;23;19966;-77
2022/10/01 00:19:34;;;;;;;;;;;10.80;99.90;;;;;;6196173;23;20250;-77
2022/10/01 00:22:02;;;;;;;;;;;10.90;99.90;;;;;;6221224;23;19915;-77
2022/10/01 00:24:35;;;;;;;;;;;10.80;99.90;;;;;;6221000;23;19919;-78
2022/10/01 00:27:24;;;;;;;;;;;10.70;99.90;;;;;;6218744;23;19916;-79
2022/10/01 00:30:10;;;;;;;;;;;10.80;99.90;;;;;;6220997;23;19912;-77
2022/10/01 00:32:59;;;;;;;;;;;10.70;99.90;;;;;;6219166;23;20087;-78
2022/10/01 00:35:38;;;;;;;;;;;10.70;99.90;;;;;;6219463;23;19975;-78
2022/10/01 00:38:16;;;;;;;;;;;10.70;99.90;;;;;;6220376;23;19955;-79
2022/10/01 00:41:00;;;;;;;;;;;10.80;99.90;;;;;;6219707;23;19957;-78
2022/10/01 00:43:55;;;;;;;;;;;;;;;;;;;;;
2022/10/01 00:46:36;;;;;;;;;;;10.70;99.90;;;;;;6220400;23;20289;-78
2022/10/01 01:02:38;;;;;;;;;;;10.70;99.90;;;;;;6190922;23;19919;-80
2022/10/01 01:05:18;;;;;;;;;;;10.70;99.90;;;;;;6167850;23;19912;-80
2022/10/01 01:08:02;;;;;;;;;;;10.70;99.90;;;;;;6190962;23;19916;-80
2022/10/01 01:10:53;;;;;;;;;;;10.60;99.90;;;;;;6173401;23;19934;-80
2022/10/01 01:13:41;;;;;;;;;;;10.60;99.90;;;;;;6185252;23;19904;-80
2022/10/01 01:19:25;;;;;;;;;;;10.50;99.90;;;;;;6214708;23;19904;-80
2022/10/01 01:22:16;;;;;;;;;;;10.70;99.90;;;;;;6167889;23;19950;-80
2022/10/01 01:25:19;;;;;;;;;;;10.60;99.90;;;;;;6160286;23;19916;-81
2022/10/01 01:31:16;;;;;;;;;;;10.60;99.90;;;;;;6157344;23;19916;-80
2022/10/01 01:33:54;;;;;;;;;;;10.60;99.90;;;;;;6189121;23;19986;-80
2022/10/01 01:39:40;;;;;;;;;;;10.70;99.90;;;;;;6178209;23;19915;-80
2022/10/01 01:42:21;;;;;;;;;;;10.70;99.90;;;;;;6189486;23;20303;-80
2022/10/01 01:44:53;;;;;;;;;;;10.60;99.90;;;;;;6190189;23;19926;-79
2022/10/01 01:50:37;;;;;;;;;;;10.70;99.90;;;;;;6145893;23;20245;-80
2022/10/01 01:53:17;;;;;;;;;;;10.70;99.90;;;;;;6220094;23;19922;-80
2022/10/01 01:56:18;;;;;;;;;;;10.70;99.90;;;;;;6195482;23;19985;-80
2022/10/01 01:59:03;;;;;;;;;;;;;;;;;;;;;
2022/10/01 02:01:55;;;;;;;;;;;10.70;99.90;;;;;;6218477;23;19912;-80
2022/10/01 02:04:35;;;;;;;;;;;10.70;99.90;;;;;;6228978;22;19957;-80
2022/10/01 02:07:31;;;;;;;;;;;10.80;99.90;;;;;;6220243;23;20018;-80
2022/10/01 02:10:59;;;;;;;;;;;10.70;99.90;;;;;;6198901;23;19983;-80
2022/10/01 02:17:26;;;;;;;;;;;10.90;99.90;;;;;;6113001;23;19919;-80
2022/10/01 02:23:57;;;;;;;;;;;10.90;99.90;;;;;;6124739;23;20252;-81
2022/10/01 02:27:00;;;;;;;;;;;;;;;;;;;;;
2022/10/01 02:29:58;;;;;;;;;;;11.00;99.90;;;;;;6009080;23;19914;-80
2022/10/01 02:33:32;;;;;;;;;;;11.00;99.90;;;;;;6084567;23;19996;-81
2022/10/01 02:36:09;;;;;;;;;;;;;;;;;;;;;
2022/10/01 02:38:56;;;;;;;;;;;11.10;99.90;;;;;;6013203;23;19933;-80
2022/10/01 02:41:49;;;;;;;;;;;11.20;99.90;;;;;;6013908;23;19917;-80
2022/10/01 02:44:36;;;;;;;;;;;11.20;99.90;;;;;;6012869;23;19914;-80
2022/10/01 02:47:43;;;;;;;;;;;11.20;99.90;;;;;;6013038;23;19921;-81
2022/10/01 02:50:38;;;;;;;;;;;11.20;99.90;;;;;;6031609;23;19925;-81
2022/10/01 03:03:16;;;;;;;;;;;11.40;99.90;;;;;;5984919;23;19941;-79
2022/10/01 03:05:54;;;;;;;;;;;11.50;99.90;;;;;;6026959;23;20252;-80
2022/10/01 03:11:36;;;;;;;;;;;;;;;;;;;;;
2022/10/01 03:14:55;;;;;;;;;;;11.40;99.90;;;;;;6116962;23;19912;-80
2022/10/01 03:17:29;;;;;;;;;;;11.50;99.90;;;;;;6047707;23;20209;-80
2022/10/01 03:20:18;;;;;;;;;;;11.40;99.90;;;;;;6157461;23;19951;-81
2022/10/01 03:22:57;;;;;;;;;;;;;;;;;;;;;
2022/10/01 03:25:29;;;;;;;;;;;11.40;99.90;;;;;;6157157;23;19916;-81
2022/10/01 03:31:22;;;;;;;;;;;11.40;99.90;;;;;;6156095;23;20082;-81
2022/10/01 03:33:59;;;;;;;;;;;11.40;99.90;;;;;;6158962;23;19916;-80
2022/10/01 03:37:00;;;;;;;;;;;11.40;99.90;;;;;;6168899;23;19913;-81
2022/10/01 03:40:07;;;;;;;;;;;11.40;99.90;;;;;;6159533;23;19912;-81
2022/10/01 03:43:26;;;;;;;;;;;;;;;;;;;;;
2022/10/01 03:49:35;;;;;;;;;;;11.50;99.90;;;;;;6185362;23;20257;-81
2022/10/01 04:09:38;;;;;;;;;;;;;;;;;;;;;
2022/10/01 04:15:53;;;;;;;;;;;11.80;99.90;;;;;;6277608;22;19910;-81
2022/10/01 04:25:42;;;;;;;;;;;11.70;99.90;;;;;;6197096;22;19916;-81
2022/10/01 04:28:49;;;;;;;;;;;;;;;;;;;;;
2022/10/01 04:31:58;;;;;;;;;;;11.80;99.90;;;;;;6129052;23;20301;-81
2022/10/01 04:38:19;;;;;;;;;;;11.80;99.90;;;;;;6040250;23;20348;-81
2022/10/01 04:41:38;;;;;;;;;;;11.90;99.90;;;;;;6068718;23;20235;-81
2022/10/01 04:45:07;;;;;;;;;;;12.00;99.90;;;;;;6135833;23;19923;-81
2022/10/01 05:34:22;;;;;;;;;;;;;;;;;;;;;
2022/10/01 05:40:47;;;;;;;;;;;;;;;;;;;;;
2022/10/01 05:43:44;;;;;;;;;;;12.10;99.90;;;;;;5934602;24;19919;-82
2022/10/01 05:47:08;;;;;;;;;;;;;;;;;;;;;
2022/10/01 05:50:16;;;;;;;;;;;12.00;99.90;;;;;;5993984;23;19918;-81
2022/10/01 05:52:53;;;;;;;;;;;11.90;99.90;;;;;;5953196;24;19972;-76
2022/10/01 05:55:19;;;;;;;;;;;11.90;99.90;;;;;;6015561;23;19918;-78
2022/10/01 05:57:52;;;;;;;;;;;11.90;99.90;;;;;;6049892;23;19917;-75
2022/10/01 06:00:21;;;;;;;;;;;11.90;99.90;;;;;;6076168;23;20320;-77
2022/10/01 06:02:57;;;;;;;;;;;11.90;99.90;;;;;;6100498;23;20035;-77
2022/10/01 06:05:33;;;;;;;;;;;11.70;99.90;;;;;;6135887;23;19991;-76
2022/10/01 06:07:59;;;;;;;;;;;11.70;99.90;;;;;;6134231;23;19916;-76
2022/10/01 06:10:26;;;;;;;;;;;11.70;99.90;;;;;;6133809;23;19912;-78
2022/10/01 06:12:57;;;;;;;;;;;11.60;99.90;;;;;;6133212;23;19912;-77
2022/10/01 06:15:23;;;;;;;;;;;11.60;99.90;;;;;;6158612;23;20381;-77
2022/10/01 06:17:48;;;;;;;;;;;11.60;99.90;;;;;;6134310;23;19912;-75
2022/10/01 06:20:26;;;;;;;;;;;;;;;;;;;;;
2022/10/01 06:36:48;;;;;;;;;;;11.80;99.90;;;;;;6242235;22;19950;-80
2022/10/01 07:12:14;;;;;;;;;;;12.30;99.90;;;;;;6246940;22;19919;-79
2022/10/01 07:15:07;;;;;;;;;;;12.50;99.90;;;;;;6215554;23;19994;-77
2022/10/01 07:27:05;;;;;;;;;;;13.10;99.90;;;;;;6171582;23;19999;-74
2022/10/01 07:29:38;;;;;;;;;;;13.30;99.90;;;;;;6199570;23;19935;-76
2022/10/01 07:32:41;;;;;;;;;;;13.50;99.90;;;;;;6190077;23;19919;-74
2022/10/01 07:39:08;;;;;;;;;;;13.80;99.90;;;;;;6067228;23;19950;-76
2022/10/01 07:45:33;;;;;;;;;;;14.20;99.90;;;;;;6048230;23;20241;-74
2022/10/01 09:33:40;;;;;;;;;;;13.50;99.90;;;;;;6277000;22;20288;-71
2022/10/01 09:36:09;;;;;;;;;;;13.40;99.90;;;;;;6250597;22;20035;-74
2022/10/01 09:38:47;;;;;;;;;;;13.30;99.90;;;;;;6250809;22;19922;-73
2022/10/01 09:41:45;;;;;;;;;;;13.20;99.90;;;;;;6224257;22;19919;-72
2022/10/01 09:44:16;;;;;;;;;;;13.10;99.90;;;;;;6249623;22;19919;-71
2022/10/01 09:46:47;;;;;;;;;;;13.10;99.90;;;;;;6250510;22;19915;-74
2022/10/01 09:50:15;;;;;;;;;;;13.10;99.90;;;;;;6223347;22;19968;-72
2022/10/01 09:52:42;;;;;;;;;;;13.10;99.90;;;;;;6145012;23;19920;-74
2022/10/01 09:55:10;;;;;;;;;;;13.10;99.90;;;;;;6249149;22;20337;-72
2022/10/01 09:58:01;;;;;;;;;;;13.10;99.90;;;;;;6277353;22;20361;-75
2022/10/01 10:04:26;;;;;;;;;;;13.00;99.90;;;;;;6253704;22;19926;-76
2022/10/01 10:07:02;;;;;;;;;;;13.00;99.90;;;;;;6225206;22;19915;-76
2022/10/01 10:09:51;;;;;;;;;;;13.00;99.90;;;;;;6223484;22;19916;-77
2022/10/01 10:12:28;;;;;;;;;;;12.90;99.90;;;;;;6223089;22;19953;-81
2022/10/01 10:14:55;;;;;;;;;;;13.00;99.90;;;;;;6248644;22;20234;-77
2022/10/01 10:17:21;;;;;;;;;;;13.00;99.90;;;;;;6223934;22;19919;-76
2022/10/01 10:19:54;;;;;;;;;;;13.00;99.90;;;;;;6223299;22;19973;-80
2022/10/01 10:22:24;;;;;;;;;;;13.10;99.90;;;;;;6223634;22;19953;-72
2022/10/01 10:24:52;;;;;;;;;;;13.10;99.90;;;;;;6223347;22;20219;-77
2022/10/01 10:27:25;;;;;;;;;;;13.20;99.90;;;;;;6223514;22;19973;-76
2022/10/01 10:30:13;;;;;;;;;;;13.30;99.90;;;;;;6248516;22;19923;-77
2022/10/01 10:32:46;;;;;;;;;;;13.40;99.90;;;;;;6223500;22;19923;-79
2022/10/01 10:35:14;;;;;;;;;;;13.40;99.90;;;;;;6248813;22;19919;-79
2022/10/01 10:37:48;;;;;;;;;;;13.60;99.90;;;;;;6249076;22;19919;-78
2022/10/01 10:40:22;;;;;;;;;;;13.90;99.90;;;;;;6223473;22;19915;-76
2022/10/01 10:42:51;;;;;;;;;;;14.30;99.90;;;;;;6249038;22;20227;-76
2022/10/01 10:45:29;;;;;;;;;;;14.60;99.90;;;;;;6223213;22;19923;-76
2022/10/01 10:48:13;;;;;;;;;;;14.90;99.90;;;;;;6248907;22;20246;-76
2022/10/01 10:51:05;;;;;;;;;;;15.00;99.90;;;;;;6222692;22;19923;-76
2022/10/01 10:53:44;;;;;;;;;;;15.30;99.90;;;;;;6248795;22;20310;-79
2022/10/01 10:56:21;;;;;;;;;;;15.50;99.90;;;;;;6226046;22;19915;-80
2022/10/01 10:58:53;;;;;;;;;;;15.50;99.90;;;;;;6228086;22;19923;-79
2022/10/01 11:01:29;;;;;;;;;;;15.70;99.90;;;;;;6224975;22;19915;-77
2022/10/01 11:03:56;;;;;;;;;;;15.90;99.90;;;;;;6225155;22;19978;-79
2022/10/01 11:06:28;;;;;;;;;;;16.00;99.90;;;;;;6224546;22;19950;-79
2022/10/01 11:09:01;;;;;;;;;;;16.00;99.90;;;;;;6224107;22;20279;-77
2022/10/01 11:11:47;;;;;;;;;;;16.00;99.90;;;;;;6223421;22;20334;-80
2022/10/01 11:14:22;;;;;;;;;;;15.90;99.90;;;;;;6223341;22;19915;-77
2022/10/01 11:16:58;;;;;;;;;;;15.80;99.90;;;;;;6276197;22;19919;-73
2022/10/01 11:19:27;;;;;;;;;;;15.80;99.90;;;;;;6223590;22;19988;-77
2022/10/01 11:22:02;;;;;;;;;;;15.80;99.90;;;;;;6248643;22;19915;-77
2022/10/01 11:24:44;;;;;;;;;;;15.80;99.90;;;;;;6222892;22;19993;-77
2022/10/01 11:27:35;;;;;;;;;;;15.60;99.90;;;;;;6248674;22;19915;-74
2022/10/01 11:30:26;;;;;;;;;;;15.40;99.90;;;;;;6248885;22;20325;-79
2022/10/01 11:33:38;;;;;;;;;;;15.30;99.90;;;;;;6181726;23;19923;-76
2022/10/01 11:36:06;;;;;;;;;;;15.40;99.90;;;;;;6157422;23;20335;-77
2022/10/01 11:38:47;;;;;;;;;;;15.40;99.90;;;;;;6157384;23;20284;-78
2022/10/01 11:41:17;;;;;;;;;;;15.50;99.90;;;;;;6133089;23;19955;-76
2022/10/01 11:43:50;;;;;;;;;;;15.40;99.90;;;;;;6132477;23;19968;-74
2022/10/01 11:46:40;;;;;;;;;;;15.30;99.90;;;;;;6152124;23;19928;-74
2022/10/01 11:52:56;;;;;;;;;;;15.20;99.90;;;;;;6127823;23;19924;-77
2022/10/01 11:58:56;;;;;;;;;;;15.60;99.90;;;;;;6154147;23;19920;-82
2022/10/01 12:08:47;;;;;;;;;;;16.20;99.90;;;;;;6276152;22;19961;-78
2022/10/01 12:11:20;;;;;;;;;;;16.40;99.90;;;;;;6190142;23;19991;-78
2022/10/01 12:13:54;;;;;;;;;;;16.30;99.90;;;;;;6164954;23;19915;-77
2022/10/01 12:16:33;;;;;;;;;;;16.20;99.90;;;;;;6224903;22;19915;-79
2022/10/01 12:19:25;;;;;;;;;;;16.10;99.90;;;;;;6225449;22;19915;-79
2022/10/01 12:22:32;;;;;;;;;;;15.90;99.90;;;;;;6190242;23;20413;-79
2022/10/01 12:25:27;;;;;;;;;;;15.70;99.90;;;;;;6144871;23;19942;-78
2022/10/01 12:28:29;;;;;;;;;;;15.50;99.90;;;;;;6194528;23;19916;-77
2022/10/01 12:34:51;;;;;;;;;;;;;;;;;;;;;
2022/10/01 12:37:44;;;;;;;;;;;15.10;99.90;;;;;;6159052;23;19924;-80
2022/10/01 12:40:50;;;;;;;;;;;15.10;99.90;;;;;;6124862;23;19920;-79
2022/10/01 12:43:51;;;;;;;;;;;15.00;99.90;;;;;;6154798;23;19993;-78
2022/10/01 12:46:55;;;;;;;;;;;15.10;99.90;;;;;;6144693;23;19928;-78
2022/10/01 12:50:03;;;;;;;;;;;15.00;99.90;;;;;;6161091;23;20370;-78
2022/10/01 12:53:04;;;;;;;;;;;15.00;99.90;;;;;;6147625;23;19915;-79
2022/10/01 12:59:34;;;;;;;;;;;15.20;99.90;;;;;;6094692;23;19929;-79
2022/10/01 13:02:09;;;;;;;;;;;15.20;99.90;;;;;;6137310;23;20279;-79
2022/10/01 13:04:55;;;;;;;;;;;15.40;99.90;;;;;;6130770;23;19956;-78
2022/10/01 13:07:51;;;;;;;;;;;15.40;99.90;;;;;;6105815;23;19955;-77
2022/10/01 13:13:43;;;;;;;;;;;15.50;99.90;;;;;;6051889;23;20299;-79
2022/10/01 13:16:41;;;;;;;;;;;15.60;99.90;;;;;;6101138;23;19917;-77
2022/10/01 13:19:34;;;;;;;;;;;15.70;99.90;;;;;;6125858;23;19968;-78
2022/10/01 13:22:13;;;;;;;;;;;15.80;99.90;;;;;;6100506;23;19921;-78
2022/10/01 13:24:51;;;;;;;;;;;15.80;99.90;;;;;;6124964;23;19924;-77
2022/10/01 13:27:23;;;;;;;;;;;15.90;99.90;;;;;;6145219;23;20387;-78
2022/10/01 13:29:57;;;;;;;;;;;15.90;99.90;;;;;;6159121;23;19920;-79
2022/10/01 13:32:26;;;;;;;;;;;15.90;99.90;;;;;;6134939;23;19954;-77
2022/10/01 13:34:52;;;;;;;;;;;15.90;99.90;;;;;;6184071;23;20339;-78
2022/10/01 13:37:37;;;;;;;;;;;15.80;99.90;;;;;;6160130;23;19975;-78
2022/10/01 13:40:38;;;;;;;;;;;15.70;99.90;;;;;;6160033;23;19963;-78
2022/10/01 13:43:03;;;;;;;;;;;15.80;99.90;;;;;;6195924;23;19915;-78
2022/10/01 13:45:37;;;;;;;;;;;15.80;99.90;;;;;;6244967;22;19927;-78
2022/10/01 13:48:17;;;;;;;;;;;15.80;99.90;;;;;;6244708;23;19915;-78
2022/10/01 13:50:56;;;;;;;;;;;15.70;99.90;;;;;;6246524;23;19998;-78
2022/10/01 13:53:25;;;;;;;;;;;15.70;99.90;;;;;;6221142;23;19986;-79
2022/10/01 13:55:55;;;;;;;;;;;15.60;99.90;;;;;;6245694;22;19924;-78
2022/10/01 13:58:29;;;;;;;;;;;15.70;99.90;;;;;;6246422;23;19915;-77
2022/10/01 14:00:57;;;;;;;;;;;15.70;99.90;;;;;;6245600;23;19915;-77
2022/10/01 14:03:27;;;;;;;;;;;15.70;99.90;;;;;;6220622;23;19994;-78
2022/10/01 14:06:00;;;;;;;;;;;15.60;99.90;;;;;;6245241;22;19926;-77
2022/10/01 14:08:36;;;;;;;;;;;15.60;99.90;;;;;;6220515;23;19922;-79
2022/10/01 14:16:41;;;;;;;;;;;15.50;99.90;;;;;;6245437;22;19915;-78
2022/10/01 14:19:07;;;;;;;;;;;15.50;99.90;;;;;;6245198;23;19915;-77
2022/10/01 14:21:40;;;;;;;;;;;15.60;99.90;;;;;;6220069;23;19916;-78
2022/10/01 14:24:06;;;;;;;;;;;15.40;99.90;;;;;;6220104;23;19927;-78
2022/10/01 14:26:54;;;;;;;;;;;15.40;99.90;;;;;;6245010;22;19970;-78
2022/10/01 14:29:32;;;;;;;;;;;15.40;99.90;;;;;;6222595;22;19954;-78
2022/10/01 14:31:57;;;;;;;;;;;15.40;99.90;;;;;;6250494;22;20326;-78
2022/10/01 14:35:04;;;;;;;;;;;15.40;99.90;;;;;;6250729;22;19976;-77
2022/10/01 14:37:33;;;;;;;;;;;15.50;99.90;;;;;;6134580;23;19921;-78
2022/10/01 14:39:59;;;;;;;;;;;15.40;99.90;;;;;;6134400;23;20003;-78
2022/10/01 14:42:27;;;;;;;;;;;15.40;99.90;;;;;;6210019;22;19949;-78
2022/10/01 14:44:55;;;;;;;;;;;15.40;99.90;;;;;;6250325;22;19919;-78
2022/10/01 14:47:26;;;;;;;;;;;15.30;99.90;;;;;;6225945;22;19923;-78
2022/10/01 14:49:55;;;;;;;;;;;15.40;99.90;;;;;;6250293;22;19985;-79
2022/10/01 14:52:28;;;;;;;;;;;15.30;99.90;;;;;;6225501;22;20377;-77
2022/10/01 14:54:59;;;;;;;;;;;15.30;99.90;;;;;;6250957;22;20293;-77
2022/10/01 14:57:36;;;;;;;;;;;15.30;99.90;;;;;;6224921;22;20004;-74
2022/10/01 15:00:09;;;;;;;;;;;15.20;99.90;;;;;;6249043;22;20379;-72
2022/10/01 15:02:42;;;;;;;;;;;15.20;99.90;;;;;;6248134;22;20288;-71
2022/10/01 15:05:23;;;;;;;;;;;15.10;99.90;;;;;;6249999;22;19919;-81
2022/10/01 15:07:49;;;;;;;;;;;15.00;99.90;;;;;;6224455;22;19990;-81
2022/10/01 15:10:45;;;;;;;;;;;15.10;99.90;;;;;;6224614;22;20314;-81
2022/10/01 15:13:20;;;;;;;;;;;15.00;99.90;;;;;;6249810;22;19916;-81
2022/10/01 15:15:52;;;;;;;;;;;15.00;99.90;;;;;;6225353;22;19915;-81
2022/10/01 15:18:18;;;;;;;;;;;15.00;99.90;;;;;;6225586;22;19919;-78
2022/10/01 15:24:28;;;;;;;;;;;15.10;99.90;;;;;;6277594;22;19917;-82
2022/10/01 15:27:01;;;;;;;;;;;15.10;99.90;;;;;;6225537;22;19926;-80
2022/10/01 15:30:02;;;;;;;;;;;15.20;99.90;;;;;;6226960;22;19971;-83
2022/10/01 15:32:44;;;;;;;;;;;15.10;99.90;;;;;;6247496;23;19974;-80
2022/10/01 15:35:16;;;;;;;;;;;15.20;99.90;;;;;;6222212;22;19915;-81
2022/10/01 15:40:42;;;;;;;;;;;15.00;99.90;;;;;;6247774;23;19916;-76
2022/10/01 15:46:53;;;;;;;;;;;14.50;99.90;;;;;;6247990;22;19958;-83
2022/10/01 16:00:13;;;;;;;;;;;;;;;;;;;;;
2022/10/01 16:03:02;;;;;;;;;;;14.60;99.90;;;;;;6180732;23;19927;-79
2022/10/01 16:05:34;;;;;;;;;;;14.60;99.90;;;;;;6135779;23;19916;-81
2022/10/01 16:08:03;;;;;;;;;;;14.60;99.90;;;;;;6226383;23;19920;-78
2022/10/01 16:10:41;;;;;;;;;;;14.50;99.90;;;;;;6221161;23;20346;-71
2022/10/01 16:13:28;;;;;;;;;;;14.50;99.90;;;;;;6224335;23;20289;-82
2022/10/01 16:16:09;;;;;;;;;;;14.40;99.90;;;;;;6246456;22;19919;-74
2022/10/01 16:18:54;;;;;;;;;;;14.40;99.90;;;;;;6243891;23;19942;-79
2022/10/01 16:25:38;;;;;;;;;;;14.30;99.90;;;;;;6247446;22;20362;-79
2022/10/01 16:42:29;;;;;;;;;;;13.70;99.90;;;;;;6265345;22;19966;-75
2022/10/01 16:45:17;;;;;;;;;;;13.50;99.90;;;;;;6251153;22;19934;-79
2022/10/01 16:47:44;;;;;;;;;;;13.60;99.90;;;;;;6251359;22;19919;-76
2022/10/01 16:54:09;;;;;;;;;;;13.50;99.90;;;;;;6184358;23;19923;-80
2022/10/01 17:04:28;;;;;;;;;;;;;;;;;;;;;
2022/10/01 17:14:26;;;;;;;;;;;12.80;99.90;;;;;;5844209;24;19920;-81
2022/10/01 17:16:52;;;;;;;;;;;12.90;99.90;;;;;;5888200;23;19925;-84
2022/10/01 17:19:33;;;;;;;;;;;12.90;99.90;;;;;;6089272;23;20351;-86
2022/10/01 17:21:58;;;;;;;;;;;12.90;99.90;;;;;;6129972;23;19917;-79
2022/10/01 17:24:24;;;;;;;;;;;12.80;99.90;;;;;;6131214;23;19999;-76
2022/10/01 17:26:50;;;;;;;;;;;12.80;99.90;;;;;;6189575;23;19987;-78
2022/10/01 17:29:15;;;;;;;;;;;12.70;99.90;;;;;;6189219;23;20362;-77
2022/10/01 17:31:45;;;;;;;;;;;12.70;99.90;;;;;;6164628;23;19916;-79
2022/10/01 17:34:13;;;;;;;;;;;12.70;99.90;;;;;;6164176;23;20389;-80
2022/10/01 17:36:44;;;;;;;;;;;12.60;99.90;;;;;;6163671;23;20365;-85
2022/10/01 17:39:13;;;;;;;;;;;12.50;99.90;;;;;;6188521;23;19916;-78
2022/10/01 17:41:38;;;;;;;;;;;12.50;99.90;;;;;;6188548;23;19920;-78
2022/10/01 17:44:04;;;;;;;;;;;12.60;99.90;;;;;;6174184;22;19978;-76
2022/10/01 17:46:38;;;;;;;;;;;12.60;99.90;;;;;;6201353;22;19922;-78
2022/10/01 17:49:26;;;;;;;;;;;12.60;99.90;;;;;;6225379;22;20227;-87
2022/10/01 17:52:25;;;;;;;;;;;;;;;;;;;;;
2022/10/01 17:55:22;;;;;;;;;;;;;;;;;;;;;
2022/10/01 17:58:24;;;;;;;;;;;12.70;99.90;;;;;;6184207;23;19994;-80
2022/10/01 18:04:41;;;;;;;;;;;12.70;99.90;;;;;;6110597;23;20018;-80
2022/10/01 18:55:16;;;;;;;;;;;;;;;;;;;;;
2022/10/01 18:58:34;;;;;;;;;;;12.40;99.90;;;;;;6220113;23;19930;-81
2022/10/01 19:38:10;;;;;;;;;;;12.00;99.90;;;;;;6257821;22;19922;-79
2022/10/01 19:41:14;;;;;;;;;;;;;;;;;;;;;
2022/10/01 19:44:10;;;;;;;;;;;12.00;99.90;;;;;;6243952;23;20089;-85
2022/10/01 19:47:02;;;;;;;;;;;12.10;99.90;;;;;;6214378;23;19970;-82
2022/10/01 19:59:52;;;;;;;;;;;11.80;99.90;;;;;;6163313;23;19923;-78
2022/10/01 20:16:34;;;;;;;;;;;12.10;99.90;;;;;;6130103;23;19916;-76
2022/10/01 20:22:45;;;;;;;;;;;12.20;99.90;;;;;;6176076;22;19914;-78
2022/10/01 20:25:35;;;;;;;;;;;12.20;99.90;;;;;;6225295;22;20242;-76
2022/10/01 20:28:28;;;;;;;;;;;12.30;99.90;;;;;;6226596;22;19916;-78
2022/10/01 20:31:18;;;;;;;;;;;;;;;;;;;;;
2022/10/01 20:34:12;;;;;;;;;;;12.30;99.90;;;;;;6249815;22;19922;-82
2022/10/01 20:44:12;;;;;;;;;;;12.40;99.90;;;;;;6214763;23;19931;-81
2022/10/01 20:47:23;;;;;;;;;;;12.30;99.90;;;;;;6189537;23;19923;-82
2022/10/01 20:50:05;;;;;;;;;;;12.50;99.90;;;;;;6164008;23;20027;-81
2022/10/01 20:53:20;;;;;;;;;;;12.40;99.90;;;;;;6214636;23;20258;-76
2022/10/01 20:56:22;;;;;;;;;;;;;;;;;;;;;
2022/10/01 20:59:26;;;;;;;;;;;12.50;99.90;;;;;;6154543;23;20316;-76
2022/10/01 21:09:04;;;;;;;;;;;12.60;99.90;;;;;;6062253;23;19988;-80
2022/10/01 21:15:15;;;;;;;;;;;12.40;99.90;;;;;;5953927;24;19958;-78
2022/10/01 21:54:14;;;;;;;;;;;12.00;99.90;;;;;;6287029;22;20345;-80
2022/10/01 21:57:21;;;;;;;;;;;;;;;;;;;;;
2022/10/01 22:24:03;;;;;;;;;;;12.00;99.90;;;;;;6153978;23;19948;-80
2022/10/01 22:37:12;;;;;;;;;;;12.00;99.90;;;;;;6044979;23;19944;-78
2022/10/01 22:39:59;;;;;;;;;;;11.80;99.90;;;;;;6084235;22;20255;-80
2022/10/01 22:45:53;;;;;;;;;;;11.70;99.90;;;;;;6277253;22;20368;-76
2022/10/01 23:05:48;;;;;;;;;;;11.60;99.90;;;;;;6186082;22;19959;-78
2022/10/01 23:35:33;;;;;;;;;;;11.90;99.90;;;;;;6153691;23;20314;-79
2022/10/01 23:38:18;;;;;;;;;;;11.80;99.90;;;;;;6171851;22;19922;-85
2022/10/01 23:44:15;;;;;;;;;;;11.90;99.90;;;;;;6182905;22;19965;-77
